Time;durP1;ratioP1;P1;durP2;ratioP2;P2;SDS_P1;SDS_P2;PMS_P1;PMS_P2;Temp;Humidity;BMP_temperature;BMP_pressure;BME280_temperature;BME280_humidity;BME280_pressure;Samples;Min_cycle;Max_cycle;Signal;HPM_P1;HPM_P2
2022/10/27 00:01:00;;;;;;;25.00;3.00;;;12.40;99.90;;;;;;5015927;28;20046;-60
2022/10/27 00:03:28;;;;;;;33.83;4.15;;;12.40;99.90;;;;;;5021706;28;20536;-66
2022/10/27 00:05:55;;;;;;;29.52;3.15;;;12.40;99.90;;;;;;5024203;28;20033;-71
2022/10/27 00:08:23;;;;;;;38.63;3.90;;;12.40;99.90;;;;;;5019251;28;20038;-71
2022/10/27 00:10:59;;;;;;;43.55;5.32;;;12.40;99.90;;;;;;5020388;28;20034;-72
2022/10/27 00:13:27;;;;;;;33.25;4.10;;;12.40;99.90;;;;;;5020845;28;20042;-70
2022/10/27 00:15:59;;;;;;;32.72;4.25;;;12.40;99.90;;;;;;5019471;28;20054;-70
2022/10/27 00:18:27;;;;;;;34.55;5.68;;;12.40;99.90;;;;;;5009834;28;20059;-59
2022/10/27 00:21:05;;;;;;;37.80;4.00;;;12.40;99.90;;;;;;5015442;28;20327;-58
2022/10/27 00:23:33;;;;;;;30.55;4.20;;;12.40;99.90;;;;;;5018082;28;20400;-61
2022/10/27 00:26:01;;;;;;;22.73;2.72;;;12.40;99.90;;;;;;5027275;28;20052;-58
2022/10/27 00:28:29;;;;;;;27.90;3.53;;;12.40;99.90;;;;;;5020166;28;20053;-59
2022/10/27 00:30:58;;;;;;;35.08;4.10;;;12.40;99.90;;;;;;5017361;28;20046;-60
2022/10/27 00:33:26;;;;;;;27.75;3.60;;;12.40;99.90;;;;;;5011995;28;20041;-60
2022/10/27 00:35:54;;;;;;;22.73;3.40;;;12.40;99.90;;;;;;5021373;28;20046;-58
2022/10/27 00:38:22;;;;;;;39.55;5.90;;;12.40;99.90;;;;;;5015973;28;20065;-58
2022/10/27 00:40:50;;;;;;;28.70;3.97;;;12.40;99.90;;;;;;5021275;28;20046;-60
2022/10/27 00:43:30;;;;;;;25.27;3.38;;;12.40;99.90;;;;;;5019964;28;20064;-65
2022/10/27 00:46:29;;;;;;;32.35;3.65;;;12.40;99.90;;;;;;5027513;28;20057;-61
2022/10/27 00:49:08;;;;;;;37.40;3.63;;;12.40;99.90;;;;;;5019908;28;20052;-59
2022/10/27 00:51:43;;;;;;;40.35;4.07;;;12.30;99.90;;;;;;5024016;28;20313;-65
2022/10/27 00:54:12;;;;;;;29.75;5.00;;;12.30;99.90;;;;;;5022653;28;20060;-61
2022/10/27 00:56:41;;;;;;;35.97;5.28;;;12.30;99.90;;;;;;5026810;28;20049;-69
2022/10/27 00:59:09;;;;;;;23.48;3.15;;;12.30;99.90;;;;;;5027457;28;20049;-72
2022/10/27 01:01:37;;;;;;;26.45;3.75;;;12.30;99.90;;;;;;5022645;28;20054;-58
2022/10/27 01:04:06;;;;;;;40.20;5.90;;;12.30;99.90;;;;;;5016845;28;20061;-58
2022/10/27 01:06:35;;;;;;;31.27;3.55;;;12.30;99.90;;;;;;5020873;28;20045;-62
2022/10/27 01:09:04;;;;;;;29.75;3.50;;;12.30;99.90;;;;;;5010735;28;20049;-57
2022/10/27 01:11:31;;;;;;;31.75;4.95;;;12.30;99.90;;;;;;5020796;28;20424;-70
2022/10/27 01:13:59;;;;;;;28.85;3.60;;;12.30;99.90;;;;;;5026006;28;20393;-67
2022/10/27 01:16:41;;;;;;;32.25;3.58;;;12.30;99.90;;;;;;5015898;28;20053;-66
2022/10/27 01:19:30;;;;;;;29.23;3.70;;;12.40;99.90;;;;;;5020409;28;20056;-66
2022/10/27 01:22:16;;;;;;;26.10;4.03;;;12.40;99.90;;;;;;5017849;28;20038;-61
2022/10/27 01:25:24;;;;;;;24.80;2.65;;;12.40;99.90;;;;;;5026432;28;20507;-64
2022/10/27 01:28:13;;;;;;;29.33;3.88;;;12.40;99.90;;;;;;5008774;28;20060;-64
2022/10/27 01:31:11;;;;;;;24.25;3.60;;;12.50;99.90;;;;;;5008844;28;20056;-60
2022/10/27 01:33:42;;;;;;;29.88;3.72;;;12.50;99.90;;;;;;4986142;28;20046;-59
2022/10/27 01:36:20;;;;;;;28.88;4.47;;;12.50;99.90;;;;;;5017967;28;20049;-60
2022/10/27 01:38:56;;;;;;;42.25;5.68;;;12.50;99.90;;;;;;5018554;28;20042;-58
2022/10/27 01:41:33;;;;;;;32.00;4.32;;;12.50;99.90;;;;;;5023818;28;20049;-65
2022/10/27 01:44:08;;;;;;;25.30;3.47;;;12.50;99.90;;;;;;5029584;28;20505;-59
2022/10/27 01:46:36;;;;;;;34.35;4.30;;;12.50;99.90;;;;;;5015806;28;20540;-59
2022/10/27 01:49:06;;;;;;;33.55;4.03;;;12.50;99.90;;;;;;5023492;28;20405;-59
2022/10/27 01:51:33;;;;;;;;;;;12.60;99.90;;;;;;5024243;28;20045;-59
2022/10/27 01:54:03;;;;;;;32.78;3.78;;;12.60;99.90;;;;;;5017175;28;19944;-60
2022/10/27 01:56:51;;;;;;;25.45;3.97;;;12.60;99.90;;;;;;5024681;28;20046;-59
2022/10/27 01:59:34;;;;;;;35.13;4.25;;;12.60;99.90;;;;;;5012557;28;20401;-63
2022/10/27 02:02:08;;;;;;;28.02;3.22;;;12.60;99.90;;;;;;5033184;28;20056;-59
2022/10/27 02:04:41;;;;;;;36.13;3.78;;;12.70;99.90;;;;;;5032815;28;20046;-59
2022/10/27 02:07:54;;;;;;;29.90;3.63;;;12.70;99.90;;;;;;5030041;28;20460;-60
2022/10/27 02:10:34;;;;;;;35.78;3.72;;;12.70;99.90;;;;;;5029871;28;20057;-59
2022/10/27 02:13:02;;;;;;;35.50;3.35;;;12.70;99.90;;;;;;5025249;28;20049;-61
2022/10/27 02:15:38;;;;;;;29.80;3.50;;;12.70;99.90;;;;;;5032956;28;20053;-59
2022/10/27 02:18:11;;;;;;;31.48;4.88;;;12.70;99.90;;;;;;5033995;28;20048;-59
2022/10/27 02:20:43;;;;;;;36.63;4.80;;;12.70;99.90;;;;;;5032765;28;20048;-59
2022/10/27 02:23:16;;;;;;;30.65;4.30;;;12.70;99.90;;;;;;5033823;28;20041;-59
2022/10/27 02:26:00;;;;;;;37.35;4.18;;;12.70;99.90;;;;;;5032679;28;20057;-59
2022/10/27 02:28:38;;;;;;;28.48;3.60;;;12.70;99.90;;;;;;5032533;28;20052;-60
2022/10/27 02:31:07;;;;;;;26.02;3.72;;;12.70;99.90;;;;;;5032684;28;20046;-59
2022/10/27 02:33:35;;;;;;;22.83;2.80;;;12.70;99.90;;;;;;5033718;28;20048;-58
2022/10/27 02:36:03;;;;;;;37.80;5.03;;;12.70;99.90;;;;;;5032592;28;20049;-58
2022/10/27 02:38:31;;;;;;;28.50;3.55;;;12.70;99.90;;;;;;5032217;28;20525;-59
2022/10/27 02:40:58;;;;;;;32.20;4.07;;;12.70;99.90;;;;;;5027091;28;20053;-60
2022/10/27 02:43:26;;;;;;;32.08;3.90;;;12.70;99.90;;;;;;5033159;28;20057;-64
2022/10/27 02:45:54;;;;;;;28.52;3.53;;;12.70;99.90;;;;;;5031221;28;20049;-61
2022/10/27 02:48:21;;;;;;;29.10;3.42;;;12.70;99.90;;;;;;5033374;28;20481;-61
2022/10/27 02:50:49;;;;;;;29.70;4.28;;;12.70;99.90;;;;;;5032243;28;20045;-63
2022/10/27 02:53:16;;;;;;;36.80;4.20;;;12.70;99.90;;;;;;5033401;28;20057;-61
2022/10/27 02:55:44;;;;;;;33.55;4.28;;;12.70;99.90;;;;;;5032405;28;20061;-59
2022/10/27 02:58:12;;;;;;;41.10;5.13;;;12.70;99.90;;;;;;5032952;28;20045;-62
2022/10/27 03:00:39;;;;;;;41.83;6.00;;;12.70;99.90;;;;;;5032377;28;20049;-60
2022/10/27 03:03:07;;;;;;;27.13;4.07;;;12.70;99.90;;;;;;5033059;28;20053;-59
2022/10/27 03:05:35;;;;;;;28.98;3.63;;;12.70;99.90;;;;;;5031279;28;20050;-60
2022/10/27 03:08:02;;;;;;;36.65;4.00;;;12.70;99.90;;;;;;5032953;28;20065;-59
2022/10/27 03:10:30;;;;;;;36.58;3.92;;;12.80;99.90;;;;;;5031914;28;20057;-60
2022/10/27 03:12:58;;;;;;;28.77;4.03;;;12.80;99.90;;;;;;5033045;28;20045;-65
2022/10/27 03:15:25;;;;;;;25.88;3.50;;;12.80;99.90;;;;;;5032637;28;20045;-60
2022/10/27 03:17:53;;;;;;;23.75;4.18;;;12.80;99.90;;;;;;5033870;28;20048;-61
2022/10/27 03:20:21;;;;;;;29.05;4.20;;;12.80;99.90;;;;;;5032377;28;20559;-60
2022/10/27 03:22:48;;;;;;;31.65;3.30;;;12.80;99.90;;;;;;5032642;28;20044;-60
2022/10/27 03:25:17;;;;;;;30.80;3.30;;;12.80;99.90;;;;;;5031242;28;20041;-59
2022/10/27 03:27:44;;;;;;;30.95;4.25;;;12.80;99.90;;;;;;5032460;28;20397;-59
2022/10/27 03:30:15;;;;;;;41.85;3.72;;;12.80;99.90;;;;;;5031477;28;20053;-59
2022/10/27 03:32:47;;;;;;;26.77;4.78;;;12.80;99.90;;;;;;5032347;28;20044;-58
2022/10/27 03:35:18;;;;;;;23.35;4.43;;;12.80;99.90;;;;;;5031619;28;20053;-59
2022/10/27 03:37:45;;;;;;;;;;;12.90;99.90;;;;;;5032779;28;20512;-58
2022/10/27 03:40:13;;;;;;;26.17;4.85;;;12.90;99.90;;;;;;5031604;28;20304;-59
2022/10/27 03:42:41;;;;;;;30.83;3.85;;;12.80;99.90;;;;;;5024135;28;20544;-59
2022/10/27 03:45:10;;;;;;;27.48;3.47;;;12.90;99.90;;;;;;5015200;28;20048;-59
2022/10/27 03:47:38;;;;;;;35.35;4.70;;;12.80;99.90;;;;;;5032274;28;20050;-59
2022/10/27 03:50:06;;;;;;;29.85;3.97;;;12.80;99.90;;;;;;5031563;28;20528;-60
2022/10/27 03:52:34;;;;;;;26.42;4.20;;;12.80;99.90;;;;;;5032046;28;20045;-59
2022/10/27 03:55:01;;;;;;;45.50;5.00;;;12.80;99.90;;;;;;5031747;28;20537;-60
2022/10/27 03:57:29;;;;;;;40.38;4.72;;;12.80;99.90;;;;;;5031198;28;20046;-60
2022/10/27 03:59:57;;;;;;;28.08;4.28;;;12.80;99.90;;;;;;5030467;28;20046;-58
2022/10/27 04:02:26;;;;;;;39.15;5.00;;;12.80;99.90;;;;;;5031394;28;20049;-60
2022/10/27 04:04:57;;;;;;;35.72;4.60;;;12.80;99.90;;;;;;5029874;28;20054;-59
2022/10/27 04:07:25;;;;;;;36.53;4.30;;;12.80;99.90;;;;;;5030896;28;20064;-59
2022/10/27 04:09:52;;;;;;;26.17;4.40;;;12.80;99.90;;;;;;5031228;28;20053;-59
2022/10/27 04:12:20;;;;;;;24.88;3.92;;;12.80;99.90;;;;;;5030033;28;20053;-59
2022/10/27 04:14:49;;;;;;;36.67;5.82;;;12.80;99.90;;;;;;5031510;28;20056;-63
2022/10/27 04:17:18;;;;;;;28.00;4.13;;;12.80;99.90;;;;;;5030914;28;20045;-59
2022/10/27 04:19:45;;;;;;;29.15;4.25;;;12.80;99.90;;;;;;5031412;28;20038;-61
2022/10/27 04:22:13;;;;;;;28.00;4.57;;;12.80;99.90;;;;;;5030516;28;20049;-62
2022/10/27 04:24:40;;;;;;;26.90;4.20;;;12.80;99.90;;;;;;5031658;28;20037;-58
2022/10/27 04:27:08;;;;;;;32.35;4.30;;;12.80;99.90;;;;;;5030796;28;20057;-60
2022/10/27 04:29:36;;;;;;;27.83;4.30;;;12.80;99.90;;;;;;5031728;28;20050;-58
2022/10/27 04:32:03;;;;;;;25.92;3.95;;;12.80;99.90;;;;;;5030427;28;20049;-58
2022/10/27 04:34:31;;;;;;;29.38;3.35;;;12.80;99.90;;;;;;5030321;28;20053;-58
2022/10/27 04:36:59;;;;;;;30.13;4.15;;;12.80;99.90;;;;;;5029010;28;20045;-60
2022/10/27 04:39:26;;;;;;;33.17;3.30;;;12.80;99.90;;;;;;5031559;28;20045;-58
2022/10/27 04:41:55;;;;;;;30.80;4.25;;;12.80;99.90;;;;;;5030146;28;20065;-58
2022/10/27 04:44:23;;;;;;;27.48;5.07;;;12.80;99.90;;;;;;5031350;28;20057;-59
2022/10/27 04:46:50;;;;;;;32.42;4.75;;;12.70;99.90;;;;;;5030156;28;20049;-62
2022/10/27 04:49:18;;;;;;;35.75;3.65;;;12.70;99.90;;;;;;5019321;28;20531;-59
2022/10/27 04:51:46;;;;;;;37.08;3.65;;;12.70;99.90;;;;;;5023878;28;20045;-59
2022/10/27 04:54:13;;;;;;;29.17;4.20;;;12.70;99.90;;;;;;5027970;28;20046;-59
2022/10/27 04:56:41;;;;;;;28.95;3.72;;;12.70;99.90;;;;;;5026906;28;20041;-59
2022/10/27 04:59:09;;;;;;;19.63;2.97;;;12.70;99.90;;;;;;5027788;28;20056;-59
2022/10/27 05:01:38;;;;;;;32.50;4.53;;;12.70;99.90;;;;;;5024994;28;20054;-59
2022/10/27 05:04:06;;;;;;;35.38;4.47;;;12.70;99.90;;;;;;5017307;28;20053;-69
2022/10/27 05:06:33;;;;;;;25.92;3.20;;;12.70;99.90;;;;;;5022825;28;20523;-66
2022/10/27 05:09:01;;;;;;;23.40;4.30;;;12.70;99.90;;;;;;5026456;28;20124;-62
2022/10/27 05:11:29;;;;;;;18.67;3.63;;;12.70;99.90;;;;;;5026651;28;20054;-69
2022/10/27 05:13:56;;;;;;;27.48;3.63;;;12.70;99.90;;;;;;5027206;28;20049;-67
2022/10/27 05:16:24;;;;;;;24.88;3.22;;;12.70;99.90;;;;;;5027043;28;20555;-64
2022/10/27 05:18:52;;;;;;;40.95;5.25;;;12.70;99.90;;;;;;5009832;28;20057;-66
2022/10/27 05:21:20;;;;;;;21.98;3.53;;;12.80;99.90;;;;;;5001003;28;20261;-63
2022/10/27 05:23:48;;;;;;;17.40;3.95;;;12.80;99.90;;;;;;5022982;28;20500;-59
2022/10/27 05:26:15;;;;;;;27.88;4.78;;;12.80;99.90;;;;;;5023842;28;20049;-59
2022/10/27 05:28:43;;;;;;;26.92;4.10;;;12.70;99.90;;;;;;5023888;28;20523;-65
2022/10/27 05:31:11;;;;;;;23.30;4.03;;;12.80;99.90;;;;;;5024217;28;20117;-63
2022/10/27 05:33:39;;;;;;;23.83;4.20;;;12.70;99.90;;;;;;5016889;28;20049;-62
2022/10/27 05:36:07;;;;;;;33.92;5.28;;;12.80;99.90;;;;;;5021345;28;20049;-59
2022/10/27 05:38:36;;;;;;;28.50;4.95;;;12.80;99.90;;;;;;5030875;28;20046;-60
2022/10/27 05:41:05;;;;;;;26.63;5.50;;;12.80;99.90;;;;;;5030369;28;20056;-66
2022/10/27 05:43:33;;;;;;;21.60;5.50;;;12.80;99.90;;;;;;5030750;28;20044;-67
2022/10/27 05:46:06;;;;;;;27.30;4.97;;;12.80;99.90;;;;;;5028805;28;20053;-64
2022/10/27 05:48:34;;;;;;;24.75;4.95;;;12.90;99.90;;;;;;5026260;28;20041;-66
2022/10/27 05:51:02;;;;;;;21.50;5.13;;;12.90;99.90;;;;;;5021547;28;20053;-65
2022/10/27 05:53:30;;;;;;;30.15;6.28;;;12.90;99.90;;;;;;5031285;28;20045;-59
2022/10/27 05:55:57;;;;;;;25.38;5.22;;;12.90;99.90;;;;;;5029359;28;20068;-63
2022/10/27 05:58:26;;;;;;;22.55;5.35;;;12.90;99.90;;;;;;5027554;28;20481;-63
2022/10/27 06:00:57;;;;;;;21.27;6.57;;;12.90;99.90;;;;;;5027101;28;20497;-68
2022/10/27 06:03:26;;;;;;;25.02;7.32;;;12.90;99.90;;;;;;5020330;28;20053;-60
2022/10/27 06:05:54;;;;;;;27.88;5.13;;;12.90;99.90;;;;;;5019424;28;20053;-64
2022/10/27 06:08:23;;;;;;;29.25;6.22;;;12.90;99.90;;;;;;5029610;28;20050;-58
2022/10/27 06:10:50;;;;;;;22.95;5.00;;;13.00;99.90;;;;;;5029670;28;20048;-59
2022/10/27 06:13:18;;;;;;;20.00;5.75;;;13.00;99.90;;;;;;5030127;28;20058;-59
2022/10/27 06:15:45;;;;;;;29.90;7.25;;;12.90;99.90;;;;;;5029914;28;20048;-58
2022/10/27 06:18:13;;;;;;;26.38;6.70;;;13.00;99.90;;;;;;5025311;28;20049;-68
2022/10/27 06:20:42;;;;;;;24.13;6.43;;;13.00;99.90;;;;;;5018203;28;20049;-67
2022/10/27 06:23:10;;;;;;;21.13;5.40;;;13.00;99.90;;;;;;5030330;28;20045;-66
2022/10/27 06:25:38;;;;;;;24.63;6.55;;;13.00;99.90;;;;;;5029862;28;20397;-68
2022/10/27 06:28:06;;;;;;;21.77;5.28;;;13.00;99.90;;;;;;5030143;28;20056;-68
2022/10/27 06:30:33;;;;;;;23.33;5.55;;;13.00;99.90;;;;;;5028873;28;20042;-69
2022/10/27 06:33:01;;;;;;;16.90;4.78;;;13.00;99.90;;;;;;5021372;28;20041;-68
2022/10/27 06:35:29;;;;;;;23.20;6.38;;;13.00;99.90;;;;;;5026239;28;20999;-67
2022/10/27 06:37:56;;;;;;;20.90;5.47;;;13.10;99.90;;;;;;5030143;28;20515;-66
2022/10/27 06:40:24;;;;;;;27.88;5.65;;;13.10;99.90;;;;;;5029333;28;20048;-68
2022/10/27 06:42:52;;;;;;;31.48;6.18;;;13.10;99.90;;;;;;5029519;28;20049;-66
2022/10/27 06:45:36;;;;;;;19.08;6.78;;;13.10;99.90;;;;;;5028900;28;20076;-64
2022/10/27 06:48:06;;;;;;;27.65;7.38;;;13.10;99.90;;;;;;5027751;28;20393;-58
2022/10/27 06:50:34;;;;;;;25.88;7.15;;;13.10;99.90;;;;;;5010798;28;20057;-59
2022/10/27 06:53:02;;;;;;;25.48;6.72;;;13.10;99.90;;;;;;5020333;28;20049;-58
2022/10/27 06:55:30;;;;;;;22.17;6.47;;;13.10;99.90;;;;;;5029770;28;20072;-59
2022/10/27 06:57:58;;;;;;;28.77;6.55;;;13.10;99.90;;;;;;5026410;28;20045;-59
2022/10/27 07:00:26;;;;;;;25.13;6.63;;;13.10;99.90;;;;;;5025885;28;20041;-59
2022/10/27 07:02:53;;;;;;;20.10;6.97;;;13.20;99.90;;;;;;5026765;28;20052;-59
2022/10/27 07:05:21;;;;;;;20.95;6.72;;;13.10;99.90;;;;;;5007448;28;20477;-59
2022/10/27 07:07:50;;;;;;;25.30;7.43;;;13.10;99.90;;;;;;5014970;28;20056;-59
2022/10/27 07:10:19;;;;;;;21.48;7.75;;;13.20;99.90;;;;;;5028873;28;20037;-60
2022/10/27 07:12:58;;;;;;;25.73;7.50;;;13.20;99.90;;;;;;5029159;28;20485;-62
2022/10/27 07:15:30;;;;;;;22.90;7.03;;;13.20;99.90;;;;;;5029637;28;20061;-59
2022/10/27 07:18:05;;;;;;;22.88;6.93;;;13.20;99.90;;;;;;5022820;28;20065;-59
2022/10/27 07:20:34;;;;;;;23.15;6.90;;;13.20;99.90;;;;;;5025679;28;20050;-59
2022/10/27 07:23:02;;;;;;;19.50;7.40;;;13.20;99.90;;;;;;5020029;28;20038;-59
2022/10/27 07:25:31;;;;;;;28.90;7.78;;;13.20;99.90;;;;;;5008662;28;20052;-59
2022/10/27 07:28:02;;;;;;;22.95;8.23;;;13.20;99.90;;;;;;5013680;28;20068;-58
2022/10/27 07:30:30;;;;;;;;;;;13.20;99.90;;;;;;5026977;28;20491;-59
2022/10/27 07:32:58;;;;;;;24.95;7.90;;;13.20;99.90;;;;;;5025348;28;19921;-58
2022/10/27 07:35:26;;;;;;;18.27;7.78;;;13.20;99.90;;;;;;5019108;28;20481;-59
2022/10/27 07:37:54;;;;;;;21.38;8.80;;;13.20;99.90;;;;;;5012224;28;20057;-67
2022/10/27 07:40:23;;;;;;;25.63;7.43;;;13.30;99.90;;;;;;5021554;28;20052;-64
2022/10/27 07:42:59;;;;;;;29.05;7.80;;;13.30;99.90;;;;;;5025791;28;20386;-69
2022/10/27 07:45:36;;;;;;;19.52;9.60;;;13.30;99.90;;;;;;5009388;28;20045;-69
2022/10/27 07:48:05;;;;;;;29.27;10.90;;;13.30;99.90;;;;;;5016870;28;20049;-68
2022/10/27 07:50:34;;;;;;;29.55;9.07;;;13.30;99.90;;;;;;5010813;28;20083;-62
2022/10/27 07:53:02;;;;;;;29.20;12.45;;;13.30;99.90;;;;;;5018448;28;20049;-62
2022/10/27 07:55:33;;;;;;;27.58;11.07;;;13.30;99.90;;;;;;5017736;28;20033;-63
2022/10/27 07:58:03;;;;;;;40.10;13.00;;;13.30;99.90;;;;;;5027829;28;20042;-60
2022/10/27 08:00:31;;;;;;;42.45;12.95;;;13.30;99.90;;;;;;5025010;28;20052;-59
2022/10/27 08:03:03;;;;;;;41.45;13.40;;;13.30;99.90;;;;;;5020362;28;20471;-61
2022/10/27 08:05:35;;;;;;;39.63;13.68;;;13.30;99.90;;;;;;5014180;28;20508;-61
2022/10/27 08:08:05;;;;;;;41.15;13.13;;;13.40;99.90;;;;;;5021065;28;20485;-62
2022/10/27 08:10:34;;;;;;;;;;;13.40;99.90;;;;;;5027843;28;20497;-60
2022/10/27 08:13:01;;;;;;;39.78;12.50;;;13.40;99.90;;;;;;5007832;28;19925;-62
2022/10/27 08:15:29;;;;;;;34.22;12.43;;;13.40;99.90;;;;;;5009122;28;20057;-61
2022/10/27 08:18:00;;;;;;;37.15;12.80;;;13.40;99.90;;;;;;5015762;28;20057;-62
2022/10/27 08:20:31;;;;;;;31.63;11.65;;;13.40;99.90;;;;;;5028850;28;20049;-59
2022/10/27 08:23:01;;;;;;;32.53;12.23;;;13.50;99.90;;;;;;5025659;28;20053;-59
2022/10/27 08:25:29;;;;;;;38.30;12.63;;;13.50;99.90;;;;;;5016757;28;20050;-59
2022/10/27 08:27:58;;;;;;;34.67;11.77;;;13.50;99.90;;;;;;5012276;28;20612;-60
2022/10/27 08:30:28;;;;;;;32.28;13.05;;;13.50;99.90;;;;;;5015956;28;20045;-58
2022/10/27 08:33:02;;;;;;;29.50;11.95;;;13.60;99.90;;;;;;5007650;28;20046;-58
2022/10/27 08:35:32;;;;;;;28.00;10.68;;;13.60;99.90;;;;;;5021858;28;20068;-59
2022/10/27 08:38:01;;;;;;;28.33;10.70;;;13.60;99.90;;;;;;5017957;28;20042;-58
2022/10/27 08:40:52;;;;;;;23.40;9.97;;;13.60;99.90;;;;;;5006180;28;20038;-59
2022/10/27 08:43:23;;;;;;;24.17;9.15;;;13.70;99.90;;;;;;5009347;28;20049;-58
2022/10/27 08:46:08;;;;;;;27.25;10.25;;;13.70;99.90;;;;;;5010716;28;20389;-58
2022/10/27 08:48:36;;;;;;;22.33;10.20;;;13.70;99.90;;;;;;5011717;28;20068;-58
2022/10/27 08:51:11;;;;;;;24.88;10.07;;;13.80;99.90;;;;;;5010526;28;20046;-58
2022/10/27 08:53:43;;;;;;;22.67;9.15;;;13.90;99.90;;;;;;5012734;28;20053;-59
2022/10/27 08:56:11;;;;;;;25.08;9.43;;;13.90;99.90;;;;;;5007860;28;20046;-58
2022/10/27 08:58:42;;;;;;;21.02;9.38;;;13.90;99.90;;;;;;5016409;28;20421;-59
2022/10/27 09:01:18;;;;;;;23.52;9.48;;;14.50;99.90;;;;;;5014003;28;20041;-59
2022/10/27 09:04:03;;;;;;;20.90;9.55;;;14.00;99.90;;;;;;5011361;28;20389;-58
2022/10/27 09:06:49;;;;;;;17.58;8.52;;;14.00;99.90;;;;;;5005342;28;20425;-58
2022/10/27 09:09:37;;;;;;;20.83;9.23;;;14.10;99.90;;;;;;5006336;28;20046;-60
2022/10/27 09:12:26;;;;;;;19.13;8.32;;;14.10;99.90;;;;;;5012882;28;20046;-58
2022/10/27 09:15:15;;;;;;;19.60;8.90;;;14.10;99.90;;;;;;5020505;28;20064;-59
2022/10/27 09:18:05;;;;;;;19.63;9.07;;;14.10;99.90;;;;;;5011133;28;20484;-59
2022/10/27 09:20:44;;;;;;;21.10;9.93;;;14.20;99.90;;;;;;5008486;28;20486;-59
2022/10/27 09:23:17;;;;;;;20.75;9.20;;;14.20;99.90;;;;;;5022123;28;20056;-60
2022/10/27 09:25:47;;;;;;;18.40;8.57;;;14.30;99.90;;;;;;5022133;28;20041;-58
2022/10/27 09:28:51;;;;;;;19.30;9.23;;;14.30;99.90;;;;;;5009761;28;20042;-60
2022/10/27 09:31:24;;;;;;;18.92;9.00;;;14.50;99.90;;;;;;5017358;28;20064;-58
2022/10/27 09:34:23;;;;;;;23.50;10.02;;;14.50;99.90;;;;;;5017029;28;20041;-59
2022/10/27 09:36:51;;;;;;;19.40;9.38;;;14.60;99.90;;;;;;5012700;28;20045;-69
2022/10/27 09:39:20;;;;;;;18.77;9.27;;;14.60;99.90;;;;;;5019002;28;20050;-59
2022/10/27 09:41:48;;;;;;;19.50;9.38;;;14.60;99.90;;;;;;5008184;28;20523;-59
2022/10/27 09:44:19;;;;;;;17.33;8.88;;;14.60;99.90;;;;;;5008984;28;20523;-60
2022/10/27 09:46:53;;;;;;;18.85;8.85;;;14.70;99.90;;;;;;5008294;28;20057;-62
2022/10/27 09:49:44;;;;;;;17.17;8.02;;;14.70;99.90;;;;;;5020716;28;20037;-63
2022/10/27 09:52:18;;;;;;;18.58;8.32;;;14.80;99.90;;;;;;5016680;28;20235;-59
2022/10/27 09:54:55;;;;;;;14.07;8.05;;;14.80;99.90;;;;;;5014143;28;20054;-59
2022/10/27 09:57:30;;;;;;;16.95;7.45;;;14.80;99.90;;;;;;5010564;28;20485;-59
2022/10/27 10:00:07;;;;;;;17.88;8.50;;;14.80;99.90;;;;;;5022766;28;20057;-58
2022/10/27 10:02:57;;;;;;;17.55;8.65;;;14.80;99.90;;;;;;5025095;28;20046;-60
2022/10/27 10:05:28;;;;;;;15.43;8.35;;;14.80;99.90;;;;;;4999917;28;20061;-62
2022/10/27 10:08:22;;;;;;;14.80;8.43;;;14.80;99.90;;;;;;5017009;28;20042;-59
2022/10/27 10:10:54;;;;;;;19.48;9.25;;;14.70;99.90;;;;;;5019147;28;20049;-60
2022/10/27 10:13:23;;;;;;;20.33;9.07;;;14.80;99.90;;;;;;5020097;28;20053;-62
2022/10/27 10:16:05;;;;;;;23.35;10.20;;;14.70;99.90;;;;;;5027848;28;20493;-61
2022/10/27 10:18:34;;;;;;;23.75;11.15;;;14.70;99.90;;;;;;5022558;28;20045;-61
2022/10/27 10:21:03;;;;;;;25.17;11.52;;;14.70;99.90;;;;;;5019229;28;20053;-61
2022/10/27 10:23:35;;;;;;;23.17;11.43;;;14.70;99.90;;;;;;5011964;28;20037;-59
2022/10/27 10:26:14;;;;;;;24.50;11.02;;;14.70;99.90;;;;;;5014026;28;20053;-61
2022/10/27 10:28:42;;;;;;;25.23;12.10;;;14.80;99.90;;;;;;5012668;28;20046;-60
2022/10/27 10:31:20;;;;;;;29.58;13.50;;;14.80;99.90;;;;;;5016393;28;20417;-61
2022/10/27 10:33:48;;;;;;;29.58;13.25;;;14.80;99.90;;;;;;5005751;28;20053;-59
2022/10/27 10:36:37;;;;;;;29.85;14.02;;;14.70;99.90;;;;;;5010757;28;20045;-61
2022/10/27 10:39:25;;;;;;;28.27;13.38;;;14.80;99.90;;;;;;5017727;28;20050;-64
2022/10/27 10:42:16;;;;;;;32.13;14.80;;;14.80;99.90;;;;;;5007570;28;20484;-61
2022/10/27 10:44:45;;;;;;;27.15;13.30;;;14.80;99.90;;;;;;5006927;28;20065;-61
2022/10/27 10:47:27;;;;;;;28.52;13.02;;;14.80;99.90;;;;;;5015954;28;20706;-59
2022/10/27 10:50:00;;;;;;;28.58;14.32;;;14.80;99.90;;;;;;5021717;28;20508;-62
2022/10/27 10:52:39;;;;;;;24.98;13.02;;;14.80;99.90;;;;;;5021693;28;20060;-61
2022/10/27 10:55:35;;;;;;;25.10;13.05;;;14.80;99.90;;;;;;5013333;28;20685;-59
2022/10/27 10:58:03;;;;;;;29.52;13.90;;;14.80;99.90;;;;;;5012188;28;20127;-61
2022/10/27 11:00:30;;;;;;;28.15;13.35;;;14.90;99.90;;;;;;5008406;28;20050;-59
2022/10/27 11:03:04;;;;;;;26.77;12.85;;;14.90;99.90;;;;;;5014044;28;20050;-60
2022/10/27 11:05:34;;;;;;;24.05;13.15;;;14.90;99.90;;;;;;5009278;28;20061;-59
2022/10/27 11:08:04;;;;;;;21.65;12.77;;;15.00;99.90;;;;;;5022400;28;20037;-59
2022/10/27 11:10:31;;;;;;;;;;;15.10;99.90;;;;;;5019586;28;20049;-64
2022/10/27 11:13:10;;;;;;;28.05;12.80;;;15.10;99.90;;;;;;5006371;28;19922;-60
2022/10/27 11:15:45;;;;;;;25.20;12.17;;;15.10;99.90;;;;;;5013721;28;20042;-60
2022/10/27 11:18:23;;;;;;;22.55;11.38;;;15.10;99.90;;;;;;5020548;28;20041;-60
2022/10/27 11:21:11;;;;;;;24.35;11.45;;;15.10;99.90;;;;;;5014979;28;20034;-70
2022/10/27 11:23:50;;;;;;;23.65;12.27;;;15.20;99.90;;;;;;5010314;28;20498;-68
2022/10/27 11:26:23;;;;;;;19.00;11.47;;;15.20;99.90;;;;;;5021815;28;20049;-72
2022/10/27 11:29:21;;;;;;;26.05;11.98;;;15.30;99.90;;;;;;5021478;28;20061;-70
2022/10/27 11:32:12;;;;;;;17.55;10.80;;;15.30;99.90;;;;;;5014230;28;20041;-70
2022/10/27 11:34:45;;;;;;;16.52;9.00;;;15.40;99.90;;;;;;5011436;28;20521;-64
2022/10/27 11:37:37;;;;;;;14.85;9.75;;;15.40;99.90;;;;;;5013937;28;20636;-63
2022/10/27 11:40:05;;;;;;;20.00;10.65;;;;;;;;;;5009844;28;20053;-68
2022/10/27 11:42:50;;;;;;;19.10;10.48;;;15.40;99.90;;;;;;5015728;28;20488;-66
2022/10/27 11:45:52;;;;;;;16.35;10.18;;;15.40;99.90;;;;;;5020223;28;20054;-68
2022/10/27 11:48:27;;;;;;;18.58;10.00;;;15.50;99.90;;;;;;5031268;28;20053;-67
2022/10/27 11:51:09;;;;;;;17.80;9.40;;;15.50;99.90;;;;;;5013400;28;20049;-63
2022/10/27 11:53:37;;;;;;;18.65;8.27;;;15.90;99.90;;;;;;5007692;28;20065;-65
2022/10/27 11:56:15;;;;;;;12.45;6.75;;;15.90;99.90;;;;;;5006762;28;20601;-69
2022/10/27 11:58:51;;;;;;;12.48;5.63;;;16.10;99.90;;;;;;5021463;28;20052;-71
2022/10/27 12:01:32;;;;;;;11.30;6.45;;;16.60;99.90;;;;;;5016670;28;20485;-73
2022/10/27 12:04:15;;;;;;;13.05;5.30;;;16.90;99.90;;;;;;5009792;28;20399;-72
2022/10/27 12:07:11;;;;;;;10.73;4.72;;;17.10;99.90;;;;;;5017102;28;20053;-72
2022/10/27 12:10:03;;;;;;;8.07;3.72;;;17.50;99.90;;;;;;5028146;28;20512;-72
2022/10/27 12:12:55;;;;;;;7.28;3.03;;;17.90;99.90;;;;;;5023786;28;20049;-73
2022/10/27 12:15:34;;;;;;;6.50;3.10;;;18.10;99.90;;;;;;5021054;28;20058;-62
2022/10/27 12:18:21;;;;;;;6.85;3.03;;;18.00;99.90;;;;;;5016558;28;20053;-70
2022/10/27 12:21:10;;;;;;;7.18;3.35;;;17.80;99.90;;;;;;5012683;28;20048;-59
2022/10/27 12:24:07;;;;;;;7.25;3.03;;;17.60;99.90;;;;;;5020717;28;20528;-62
2022/10/27 12:26:44;;;;;;;6.85;2.72;;;17.40;99.90;;;;;;4987661;28;20054;-62
2022/10/27 12:29:12;;;;;;;6.82;2.97;;;17.20;99.90;;;;;;5018821;28;20478;-61
2022/10/27 12:31:54;;;;;;;8.48;3.05;;;17.00;99.90;;;;;;5011002;28;20051;-66
2022/10/27 12:34:28;;;;;;;8.20;3.30;;;16.90;99.90;;;;;;5009350;28;20057;-67
2022/10/27 12:37:11;;;;;;;8.45;3.88;;;16.80;99.90;;;;;;5008326;28;20042;-64
2022/10/27 12:40:03;;;;;;;6.72;3.35;;;16.70;99.90;;;;;;5023594;28;20401;-66
2022/10/27 12:42:50;;;;;;;8.02;3.72;;;16.70;99.90;;;;;;5009030;28;20045;-60
2022/10/27 12:45:45;;;;;;;6.50;2.90;;;16.70;99.90;;;;;;5016654;28;20045;-60
2022/10/27 12:48:32;;;;;;;8.70;3.55;;;16.70;99.90;;;;;;5010625;28;20056;-61
2022/10/27 12:51:33;;;;;;;8.35;2.70;;;16.60;99.90;;;;;;5013036;28;20477;-61
2022/10/27 12:54:38;;;;;;;12.40;3.40;;;16.60;99.90;;;;;;5016327;28;20038;-58
2022/10/27 12:57:18;;;;;;;7.20;4.47;;;16.50;99.90;;;;;;5010964;28;20045;-59
2022/10/27 13:00:04;;;;;;;6.53;3.90;;;16.50;99.90;;;;;;5024240;28;20049;-59
2022/10/27 13:02:39;;;;;;;11.23;4.30;;;16.50;99.90;;;;;;5013754;28;20049;-60
2022/10/27 13:05:33;;;;;;;9.63;3.40;;;16.50;99.90;;;;;;5006210;28;20057;-59
2022/10/27 13:08:07;;;;;;;4.80;3.15;;;16.50;99.90;;;;;;5015669;28;20060;-61
2022/10/27 13:11:23;;;;;;;5.53;2.97;;;16.60;99.90;;;;;;5028175;28;20063;-60